sensor_id;sensor_type;location;lat;lon;timestamp;temperature;humidity
17452;DHT22;8843;48.838;9.324;2024-03-23T00:52:41;13.50;88.20
17452;DHT22;8843;48.838;9.324;2024-03-23T00:55:07;13.50;88.80
17452;DHT22;8843;48.838;9.324;2024-03-23T00:57:34;13.50;88.10
17452;DHT22;8843;48.838;9.324;2024-03-23T01:00:02;13.50;88.10
17452;DHT22;8843;48.838;9.324;2024-03-23T01:02:31;13.50;88.10
17452;DHT22;8843;48.838;9.324;2024-03-23T01:04:57;13.50;88.10
17452;DHT22;8843;48.838;9.324;2024-03-23T01:07:24;13.50;88.10
17452;DHT22;8843;48.838;9.324;2024-03-23T01:09:50;13.40;88.00
17452;DHT22;8843;48.838;9.324;2024-03-23T01:12:19;13.50;88.10
17452;DHT22;8843;48.838;9.324;2024-03-23T01:14:45;13.40;88.10
17452;DHT22;8843;48.838;9.324;2024-03-23T01:17:13;13.40;88.00
17452;DHT22;8843;48.838;9.324;2024-03-23T01:19:39;13.40;88.00
17452;DHT22;8843;48.838;9.324;2024-03-23T01:22:07;13.40;88.10
17452;DHT22;8843;48.838;9.324;2024-03-23T01:24:33;13.40;88.10
17452;DHT22;8843;48.838;9.324;2024-03-23T01:27:00;13.40;88.00
17452;DHT22;8843;48.838;9.324;2024-03-23T01:29:25;13.40;88.10
17452;DHT22;8843;48.838;9.324;2024-03-23T01:31:55;13.40;88.00
17452;DHT22;8843;48.838;9.324;2024-03-23T01:34:23;13.40;88.10
17452;DHT22;8843;48.838;9.324;2024-03-23T01:36:50;13.40;88.20
17452;DHT22;8843;48.838;9.324;2024-03-23T01:39:17;13.40;88.10
17452;DHT22;8843;48.838;9.324;2024-03-23T01:41:44;13.40;88.10
17452;DHT22;8843;48.838;9.324;2024-03-23T01:44:10;13.40;88.20
17452;DHT22;8843;48.838;9.324;2024-03-23T01:46:39;13.40;88.10
17452;DHT22;8843;48.838;9.324;2024-03-23T01:49:07;13.40;88.10
17452;DHT22;8843;48.838;9.324;2024-03-23T01:51:36;13.40;88.10
17452;DHT22;8843;48.838;9.324;2024-03-23T01:54:03;13.40;88.20
17452;DHT22;8843;48.838;9.324;2024-03-23T01:56:32;13.40;88.20
17452;DHT22;8843;48.838;9.324;2024-03-23T01:58:59;13.40;88.30
17452;DHT22;8843;48.838;9.324;2024-03-23T02:01:26;13.40;88.30
17452;DHT22;8843;48.838;9.324;2024-03-23T02:03:53;13.30;88.20
17452;DHT22;8843;48.838;9.324;2024-03-23T02:06:20;13.40;88.40
17452;DHT22;8843;48.838;9.324;2024-03-23T02:08:49;13.40;88.30
17452;DHT22;8843;48.838;9.324;2024-03-23T02:11:16;13.30;88.30
17452;DHT22;8843;48.838;9.324;2024-03-23T02:13:42;13.40;88.30
17452;DHT22;8843;48.838;9.324;2024-03-23T02:16:09;13.40;88.40
17452;DHT22;8843;48.838;9.324;2024-03-23T02:18:35;13.40;88.30
17452;DHT22;8843;48.838;9.324;2024-03-23T02:21:03;13.40;88.40
17452;DHT22;8843;48.838;9.324;2024-03-23T02:23:32;13.30;88.30
17452;DHT22;8843;48.838;9.324;2024-03-23T02:25:59;13.30;88.40
17452;DHT22;8843;48.838;9.324;2024-03-23T02:28:25;13.30;88.30
17452;DHT22;8843;48.838;9.324;2024-03-23T02:30:52;13.30;88.50
17452;DHT22;8843;48.838;9.324;2024-03-23T02:33:18;13.30;88.40
17452;DHT22;8843;48.838;9.324;2024-03-23T02:35:45;13.30;88.30
17452;DHT22;8843;48.838;9.324;2024-03-23T02:38:11;13.30;88.20
17452;DHT22;8843;48.838;9.324;2024-03-23T02:40:40;13.30;88.30
17452;DHT22;8843;48.838;9.324;2024-03-23T02:43:06;13.30;88.30
17452;DHT22;8843;48.838;9.324;2024-03-23T02:45:34;13.30;88.30
17452;DHT22;8843;48.838;9.324;2024-03-23T02:48:00;13.30;88.30
17452;DHT22;8843;48.838;9.324;2024-03-23T02:50:27;13.30;88.10
17452;DHT22;8843;48.838;9.324;2024-03-23T02:52:53;13.30;88.20
17452;DHT22;8843;48.838;9.324;2024-03-23T02:55:20;13.30;87.70
17452;DHT22;8843;48.838;9.324;2024-03-23T02:57:47;13.30;87.90
17452;DHT22;8843;48.838;9.324;2024-03-23T03:00:15;13.30;87.90
17452;DHT22;8843;48.838;9.324;2024-03-23T03:02:40;13.20;87.70
17452;DHT22;8843;48.838;9.324;2024-03-23T03:05:07;13.30;87.90
17452;DHT22;8843;48.838;9.324;2024-03-23T03:07:34;13.30;87.60
17452;DHT22;8843;48.838;9.324;2024-03-23T03:10:04;13.30;88.00
17452;DHT22;8843;48.838;9.324;2024-03-23T03:12:32;13.20;87.70
17452;DHT22;8843;48.838;9.324;2024-03-23T03:15:01;13.20;87.80
17452;DHT22;8843;48.838;9.324;2024-03-23T03:17:28;13.20;87.40
17452;DHT22;8843;48.838;9.324;2024-03-23T03:19:56;13.20;87.70
17452;DHT22;8843;48.838;9.324;2024-03-23T03:22:22;13.20;87.60
17452;DHT22;8843;48.838;9.324;2024-03-23T03:24:49;13.20;86.90
17452;DHT22;8843;48.838;9.324;2024-03-23T03:27:15;13.20;87.60
17452;DHT22;8843;48.838;9.324;2024-03-23T03:29:42;13.20;87.80
17452;DHT22;8843;48.838;9.324;2024-03-23T03:32:09;13.20;86.60
17452;DHT22;8843;48.838;9.324;2024-03-23T03:34:37;13.20;87.50
17452;DHT22;8843;48.838;9.324;2024-03-23T03:37:04;13.20;86.60
17452;DHT22;8843;48.838;9.324;2024-03-23T03:39:31;13.20;87.30
17452;DHT22;8843;48.838;9.324;2024-03-23T03:41:57;13.20;88.00
17452;DHT22;8843;48.838;9.324;2024-03-23T03:44:25;13.20;87.80
17452;DHT22;8843;48.838;9.324;2024-03-23T03:46:51;13.20;87.80
17452;DHT22;8843;48.838;9.324;2024-03-23T03:49:22;13.10;87.50
17452;DHT22;8843;48.838;9.324;2024-03-23T03:51:48;13.20;87.40
17452;DHT22;8843;48.838;9.324;2024-03-23T03:54:15;13.10;88.00
17452;DHT22;8843;48.838;9.324;2024-03-23T03:56:41;13.10;87.70
17452;DHT22;8843;48.838;9.324;2024-03-23T03:59:08;13.20;88.10
17452;DHT22;8843;48.838;9.324;2024-03-23T04:01:36;13.10;87.90
17452;DHT22;8843;48.838;9.324;2024-03-23T04:04:03;13.10;88.70
17452;DHT22;8843;48.838;9.324;2024-03-23T04:06:31;13.10;88.20
17452;DHT22;8843;48.838;9.324;2024-03-23T04:09:00;13.10;88.00
17452;DHT22;8843;48.838;9.324;2024-03-23T04:11:26;13.10;88.10
17452;DHT22;8843;48.838;9.324;2024-03-23T04:13:57;13.10;88.30
17452;DHT22;8843;48.838;9.324;2024-03-23T04:16:27;13.10;88.10
17452;DHT22;8843;48.838;9.324;2024-03-23T04:18:55;13.10;86.70
17452;DHT22;8843;48.838;9.324;2024-03-23T04:21:22;13.10;88.00
17452;DHT22;8843;48.838;9.324;2024-03-23T04:23:51;13.10;87.30
17452;DHT22;8843;48.838;9.324;2024-03-23T04:26:17;13.10;87.50
17452;DHT22;8843;48.838;9.324;2024-03-23T04:28:44;13.10;86.10
17452;DHT22;8843;48.838;9.324;2024-03-23T04:31:10;13.10;88.40
17452;DHT22;8843;48.838;9.324;2024-03-23T04:33:37;13.10;88.50
17452;DHT22;8843;48.838;9.324;2024-03-23T04:36:04;13.10;88.30
17452;DHT22;8843;48.838;9.324;2024-03-23T04:38:33;13.10;88.40
17452;DHT22;8843;48.838;9.324;2024-03-23T04:41:02;13.10;88.20
17452;DHT22;8843;48.838;9.324;2024-03-23T04:43:31;13.10;87.70
17452;DHT22;8843;48.838;9.324;2024-03-23T04:45:58;13.10;88.00
17452;DHT22;8843;48.838;9.324;2024-03-23T04:48:25;13.10;89.00
17452;DHT22;8843;48.838;9.324;2024-03-23T04:50:55;13.10;89.10
17452;DHT22;8843;48.838;9.324;2024-03-23T04:53:24;13.10;88.60
17452;DHT22;8843;48.838;9.324;2024-03-23T04:55:54;13.10;89.10
17452;DHT22;8843;48.838;9.324;2024-03-23T04:58:22;13.10;89.00
17452;DHT22;8843;48.838;9.324;2024-03-23T05:00:53;13.10;89.30
17452;DHT22;8843;48.838;9.324;2024-03-23T05:03:22;13.10;89.20
17452;DHT22;8843;48.838;9.324;2024-03-23T05:05:50;13.00;89.70
17452;DHT22;8843;48.838;9.324;2024-03-23T05:08:16;13.10;89.90
17452;DHT22;8843;48.838;9.324;2024-03-23T05:10:43;13.10;89.80
17452;DHT22;8843;48.838;9.324;2024-03-23T05:13:09;13.00;89.70
17452;DHT22;8843;48.838;9.324;2024-03-23T05:15:38;13.00;89.70
17452;DHT22;8843;48.838;9.324;2024-03-23T05:18:05;13.00;90.30
17452;DHT22;8843;48.838;9.324;2024-03-23T05:20:32;13.00;90.00
17452;DHT22;8843;48.838;9.324;2024-03-23T05:22:59;13.00;90.10
17452;DHT22;8843;48.838;9.324;2024-03-23T05:25:26;13.00;90.10
17452;DHT22;8843;48.838;9.324;2024-03-23T05:27:51;13.00;90.20
17452;DHT22;8843;48.838;9.324;2024-03-23T05:30:19;13.00;90.20
17452;DHT22;8843;48.838;9.324;2024-03-23T05:32:46;13.00;90.30
17452;DHT22;8843;48.838;9.324;2024-03-23T05:35:13;12.90;90.20
17452;DHT22;8843;48.838;9.324;2024-03-23T05:37:39;12.90;90.30
17452;DHT22;8843;48.838;9.324;2024-03-23T05:40:06;12.90;90.40
17452;DHT22;8843;48.838;9.324;2024-03-23T05:42:34;12.90;90.30
17452;DHT22;8843;48.838;9.324;2024-03-23T05:45:01;12.90;90.40
17452;DHT22;8843;48.838;9.324;2024-03-23T05:47:27;12.90;90.50
17452;DHT22;8843;48.838;9.324;2024-03-23T05:49:55;12.90;90.40
17452;DHT22;8843;48.838;9.324;2024-03-23T05:52:21;12.90;90.40
17452;DHT22;8843;48.838;9.324;2024-03-23T05:54:51;12.90;90.50
17452;DHT22;8843;48.838;9.324;2024-03-23T05:57:19;12.90;90.20
17452;DHT22;8843;48.838;9.324;2024-03-23T05:59:46;12.90;90.20
17452;DHT22;8843;48.838;9.324;2024-03-23T06:02:12;12.80;90.10
17452;DHT22;8843;48.838;9.324;2024-03-23T06:04:40;12.80;90.20
17452;DHT22;8843;48.838;9.324;2024-03-23T06:07:07;12.80;90.40
17452;DHT22;8843;48.838;9.324;2024-03-23T06:09:40;12.80;90.10
17452;DHT22;8843;48.838;9.324;2024-03-23T06:12:06;12.80;90.30
17452;DHT22;8843;48.838;9.324;2024-03-23T06:14:34;12.80;90.40
17452;DHT22;8843;48.838;9.324;2024-03-23T06:17:00;12.80;90.50
17452;DHT22;8843;48.838;9.324;2024-03-23T06:19:28;12.80;90.20
17452;DHT22;8843;48.838;9.324;2024-03-23T06:21:54;12.80;90.10
17452;DHT22;8843;48.838;9.324;2024-03-23T06:24:24;12.80;90.10
17452;DHT22;8843;48.838;9.324;2024-03-23T06:26:50;12.80;90.50
17452;DHT22;8843;48.838;9.324;2024-03-23T06:29:17;12.80;90.30
17452;DHT22;8843;48.838;9.324;2024-03-23T06:31:43;12.80;90.20
17452;DHT22;8843;48.838;9.324;2024-03-23T06:34:10;12.80;90.40
17452;DHT22;8843;48.838;9.324;2024-03-23T06:36:36;12.80;90.10
17452;DHT22;8843;48.838;9.324;2024-03-23T06:39:04;12.70;90.00
17452;DHT22;8843;48.838;9.324;2024-03-23T06:41:33;12.70;89.20
17452;DHT22;8843;48.838;9.324;2024-03-23T06:44:01;12.70;90.00
17452;DHT22;8843;48.838;9.324;2024-03-23T06:46:28;12.60;89.60
17452;DHT22;8843;48.838;9.324;2024-03-23T06:48:54;12.60;90.10
17452;DHT22;8843;48.838;9.324;2024-03-23T06:51:22;12.60;90.30
17452;DHT22;8843;48.838;9.324;2024-03-23T06:53:49;12.70;89.60
17452;DHT22;8843;48.838;9.324;2024-03-23T06:56:16;12.70;90.10
17452;DHT22;8843;48.838;9.324;2024-03-23T06:58:44;12.70;90.00
17452;DHT22;8843;48.838;9.324;2024-03-23T07:01:11;12.90;90.90
17452;DHT22;8843;48.838;9.324;2024-03-23T07:03:37;12.90;89.40
17452;DHT22;8843;48.838;9.324;2024-03-23T07:06:04;12.70;90.10
17452;DHT22;8843;48.838;9.324;2024-03-23T07:08:30;12.70;90.30
17452;DHT22;8843;48.838;9.324;2024-03-23T07:10:57;13.20;90.70
17452;DHT22;8843;48.838;9.324;2024-03-23T07:13:23;13.10;88.40
17452;DHT22;8843;48.838;9.324;2024-03-23T07:15:56;13.00;88.70
17452;DHT22;8843;48.838;9.324;2024-03-23T07:18:23;12.80;90.00
17452;DHT22;8843;48.838;9.324;2024-03-23T07:20:54;12.70;90.00
17452;DHT22;8843;48.838;9.324;2024-03-23T07:23:20;12.70;89.80
17452;DHT22;8843;48.838;9.324;2024-03-23T07:25:56;12.70;90.30
17452;DHT22;8843;48.838;9.324;2024-03-23T07:28:22;12.60;90.00
17452;DHT22;8843;48.838;9.324;2024-03-23T07:31:01;12.60;88.50
17452;DHT22;8843;48.838;9.324;2024-03-23T07:33:27;12.60;89.50
17452;DHT22;8843;48.838;9.324;2024-03-23T07:35:55;12.50;89.30
17452;DHT22;8843;48.838;9.324;2024-03-23T07:38:21;12.50;89.60
17452;DHT22;8843;48.838;9.324;2024-03-23T07:40:48;12.50;89.20
17452;DHT22;8843;48.838;9.324;2024-03-23T07:43:17;12.50;90.00
17452;DHT22;8843;48.838;9.324;2024-03-23T07:45:52;12.50;89.30
17452;DHT22;8843;48.838;9.324;2024-03-23T07:48:21;12.50;89.30
17452;DHT22;8843;48.838;9.324;2024-03-23T07:51:00;12.60;91.40
17452;DHT22;8843;48.838;9.324;2024-03-23T07:53:28;12.80;90.50
17452;DHT22;8843;48.838;9.324;2024-03-23T07:55:55;12.20;86.00
17452;DHT22;8843;48.838;9.324;2024-03-23T07:58:22;12.20;86.20
17452;DHT22;8843;48.838;9.324;2024-03-23T08:00:48;12.50;89.50
17452;DHT22;8843;48.838;9.324;2024-03-23T08:03:17;12.50;88.10
17452;DHT22;8843;48.838;9.324;2024-03-23T08:05:45;12.30;83.10
17452;DHT22;8843;48.838;9.324;2024-03-23T08:08:16;12.10;86.70
17452;DHT22;8843;48.838;9.324;2024-03-23T08:10:50;12.20;86.80
17452;DHT22;8843;48.838;9.324;2024-03-23T08:13:19;12.20;86.70
17452;DHT22;8843;48.838;9.324;2024-03-23T08:15:45;12.30;86.90
17452;DHT22;8843;48.838;9.324;2024-03-23T08:18:13;12.30;86.60
17452;DHT22;8843;48.838;9.324;2024-03-23T08:20:41;12.40;87.60
17452;DHT22;8843;48.838;9.324;2024-03-23T08:23:10;12.40;86.60
17452;DHT22;8843;48.838;9.324;2024-03-23T08:25:36;12.40;87.80
17452;DHT22;8843;48.838;9.324;2024-03-23T08:28:05;12.40;86.80
17452;DHT22;8843;48.838;9.324;2024-03-23T08:30:35;12.30;86.80
17452;DHT22;8843;48.838;9.324;2024-03-23T08:33:02;12.40;87.70
17452;DHT22;8843;48.838;9.324;2024-03-23T08:35:30;12.40;87.80
17452;DHT22;8843;48.838;9.324;2024-03-23T08:37:58;12.30;87.30
17452;DHT22;8843;48.838;9.324;2024-03-23T08:40:25;12.30;87.20
17452;DHT22;8843;48.838;9.324;2024-03-23T08:42:54;12.40;87.70
17452;DHT22;8843;48.838;9.324;2024-03-23T08:45:19;12.40;87.00
17452;DHT22;8843;48.838;9.324;2024-03-23T08:47:47;12.40;87.00
17452;DHT22;8843;48.838;9.324;2024-03-23T08:50:13;12.40;87.10
17452;DHT22;8843;48.838;9.324;2024-03-23T08:52:40;12.40;87.70
17452;DHT22;8843;48.838;9.324;2024-03-23T08:55:06;12.30;85.40
17452;DHT22;8843;48.838;9.324;2024-03-23T08:57:36;12.40;87.80
17452;DHT22;8843;48.838;9.324;2024-03-23T09:00:03;12.30;85.70
17452;DHT22;8843;48.838;9.324;2024-03-23T09:02:31;12.30;85.70
17452;DHT22;8843;48.838;9.324;2024-03-23T09:04:58;12.30;86.10
17452;DHT22;8843;48.838;9.324;2024-03-23T09:07:30;12.30;86.60
17452;DHT22;8843;48.838;9.324;2024-03-23T09:09:56;12.30;86.80
17452;DHT22;8843;48.838;9.324;2024-03-23T09:12:23;12.40;86.80
17452;DHT22;8843;48.838;9.324;2024-03-23T09:14:51;12.40;87.40
17452;DHT22;8843;48.838;9.324;2024-03-23T09:17:19;12.40;87.10
17452;DHT22;8843;48.838;9.324;2024-03-23T09:19:45;12.30;86.90
17452;DHT22;8843;48.838;9.324;2024-03-23T09:22:12;12.30;88.10
17452;DHT22;8843;48.838;9.324;2024-03-23T09:24:39;12.30;86.80
17452;DHT22;8843;48.838;9.324;2024-03-23T09:27:06;12.30;87.10
17452;DHT22;8843;48.838;9.324;2024-03-23T09:29:32;12.30;86.80
17452;DHT22;8843;48.838;9.324;2024-03-23T09:32:01;12.30;87.40
17452;DHT22;8843;48.838;9.324;2024-03-23T09:34:27;12.30;86.10
17452;DHT22;8843;48.838;9.324;2024-03-23T09:36:57;12.30;86.00
17452;DHT22;8843;48.838;9.324;2024-03-23T09:39:23;12.30;84.50
17452;DHT22;8843;48.838;9.324;2024-03-23T09:41:50;12.30;85.70
17452;DHT22;8843;48.838;9.324;2024-03-23T09:44:22;12.30;85.60
17452;DHT22;8843;48.838;9.324;2024-03-23T09:46:51;12.30;85.90
17452;DHT22;8843;48.838;9.324;2024-03-23T09:49:19;12.40;86.40
17452;DHT22;8843;48.838;9.324;2024-03-23T09:51:46;12.40;87.20
17452;DHT22;8843;48.838;9.324;2024-03-23T09:54:12;12.30;85.20
17452;DHT22;8843;48.838;9.324;2024-03-23T09:56:40;12.40;85.30
17452;DHT22;8843;48.838;9.324;2024-03-23T09:59:07;12.30;83.70
17452;DHT22;8843;48.838;9.324;2024-03-23T10:01:35;12.30;85.10
17452;DHT22;8843;48.838;9.324;2024-03-23T10:04:01;12.40;85.40
17452;DHT22;8843;48.838;9.324;2024-03-23T10:06:32;12.40;86.90
17452;DHT22;8843;48.838;9.324;2024-03-23T10:08:59;12.40;83.40
17452;DHT22;8843;48.838;9.324;2024-03-23T10:11:26;12.40;87.80
17452;DHT22;8843;48.838;9.324;2024-03-23T10:13:55;12.40;86.10
17452;DHT22;8843;48.838;9.324;2024-03-23T10:16:23;12.40;86.50
17452;DHT22;8843;48.838;9.324;2024-03-23T10:18:50;12.30;82.50
17452;DHT22;8843;48.838;9.324;2024-03-23T10:21:17;12.40;86.90
17452;DHT22;8843;48.838;9.324;2024-03-23T10:23:46;12.30;84.80
17452;DHT22;8843;48.838;9.324;2024-03-23T10:26:19;12.40;85.60
17452;DHT22;8843;48.838;9.324;2024-03-23T10:28:57;12.40;85.60
17452;DHT22;8843;48.838;9.324;2024-03-23T10:31:27;12.40;85.90
17452;DHT22;8843;48.838;9.324;2024-03-23T10:33:53;12.30;84.10
17452;DHT22;8843;48.838;9.324;2024-03-23T10:36:22;12.40;85.30
17452;DHT22;8843;48.838;9.324;2024-03-23T10:38:50;12.40;86.30
17452;DHT22;8843;48.838;9.324;2024-03-23T10:41:18;12.40;84.60
17452;DHT22;8843;48.838;9.324;2024-03-23T10:43:46;12.30;83.00
17452;DHT22;8843;48.838;9.324;2024-03-23T10:46:15;12.30;84.60
17452;DHT22;8843;48.838;9.324;2024-03-23T10:48:41;12.30;84.10
17452;DHT22;8843;48.838;9.324;2024-03-23T10:51:10;12.30;83.90
17452;DHT22;8843;48.838;9.324;2024-03-23T10:53:36;12.30;83.50
17452;DHT22;8843;48.838;9.324;2024-03-23T10:56:07;12.30;82.90
17452;DHT22;8843;48.838;9.324;2024-03-23T10:58:37;12.30;85.60
17452;DHT22;8843;48.838;9.324;2024-03-23T11:01:05;12.30;83.90
17452;DHT22;8843;48.838;9.324;2024-03-23T11:03:34;12.30;84.70
17452;DHT22;8843;48.838;9.324;2024-03-23T11:06:03;12.10;84.70
17452;DHT22;8843;48.838;9.324;2024-03-23T11:08:33;12.10;84.10
17452;DHT22;8843;48.838;9.324;2024-03-23T11:11:21;12.10;86.00
17452;DHT22;8843;48.838;9.324;2024-03-23T11:13:50;12.10;84.20
17452;DHT22;8843;48.838;9.324;2024-03-23T11:16:23;12.00;85.70
17452;DHT22;8843;48.838;9.324;2024-03-23T11:18:49;12.00;85.00
17452;DHT22;8843;48.838;9.324;2024-03-23T11:21:54;12.00;84.90
17452;DHT22;8843;48.838;9.324;2024-03-23T11:24:21;12.10;86.50
17452;DHT22;8843;48.838;9.324;2024-03-23T11:26:50;12.10;87.40
17452;DHT22;8843;48.838;9.324;2024-03-23T11:29:17;12.20;88.10
17452;DHT22;8843;48.838;9.324;2024-03-23T11:31:48;12.20;88.00
17452;DHT22;8843;48.838;9.324;2024-03-23T11:34:15;12.20;87.90
17452;DHT22;8843;48.838;9.324;2024-03-23T11:36:43;12.20;87.20
17452;DHT22;8843;48.838;9.324;2024-03-23T11:39:13;12.20;87.30
17452;DHT22;8843;48.838;9.324;2024-03-23T11:41:50;12.20;88.00
17452;DHT22;8843;48.838;9.324;2024-03-23T11:44:17;12.20;88.10
17452;DHT22;8843;48.838;9.324;2024-03-23T11:46:44;12.20;88.60
17452;DHT22;8843;48.838;9.324;2024-03-23T11:49:21;12.30;88.50
17452;DHT22;8843;48.838;9.324;2024-03-23T11:51:49;12.50;87.80
17452;DHT22;8843;48.838;9.324;2024-03-23T11:54:15;13.50;91.80
17452;DHT22;8843;48.838;9.324;2024-03-23T11:56:56;14.00;90.00
17452;DHT22;8843;48.838;9.324;2024-03-23T11:59:33;13.90;85.00
17452;DHT22;8843;48.838;9.324;2024-03-23T12:02:00;13.40;81.20
17452;DHT22;8843;48.838;9.324;2024-03-23T12:04:28;13.00;86.80
17452;DHT22;8843;48.838;9.324;2024-03-23T12:07:11;12.80;85.10
17452;DHT22;8843;48.838;9.324;2024-03-23T12:09:40;12.70;88.20
17452;DHT22;8843;48.838;9.324;2024-03-23T12:12:13;12.90;89.00
17452;DHT22;8843;48.838;9.324;2024-03-23T12:14:40;12.80;87.40
17452;DHT22;8843;48.838;9.324;2024-03-23T12:17:09;12.60;85.40
17452;DHT22;8843;48.838;9.324;2024-03-23T12:19:36;12.50;85.50
17452;DHT22;8843;48.838;9.324;2024-03-23T12:22:03;12.40;85.50
17452;DHT22;8843;48.838;9.324;2024-03-23T12:24:30;12.40;84.50
17452;DHT22;8843;48.838;9.324;2024-03-23T12:27:00;12.30;84.30
17452;DHT22;8843;48.838;9.324;2024-03-23T12:29:28;12.30;86.60
17452;DHT22;8843;48.838;9.324;2024-03-23T12:31:55;12.50;88.80
17452;DHT22;8843;48.838;9.324;2024-03-23T12:34:21;12.40;85.40
17452;DHT22;8843;48.838;9.324;2024-03-23T12:36:49;12.30;84.60
17452;DHT22;8843;48.838;9.324;2024-03-23T12:39:15;12.30;83.50
17452;DHT22;8843;48.838;9.324;2024-03-23T12:41:42;12.30;84.10
17452;DHT22;8843;48.838;9.324;2024-03-23T12:44:08;12.30;87.10
17452;DHT22;8843;48.838;9.324;2024-03-23T12:46:38;12.30;84.50
17452;DHT22;8843;48.838;9.324;2024-03-23T12:49:06;12.30;85.20
17452;DHT22;8843;48.838;9.324;2024-03-23T12:51:34;12.20;84.30
17452;DHT22;8843;48.838;9.324;2024-03-23T12:54:00;12.20;86.50
17452;DHT22;8843;48.838;9.324;2024-03-23T12:56:28;12.20;84.20
17452;DHT22;8843;48.838;9.324;2024-03-23T12:58:54;12.20;85.90
17452;DHT22;8843;48.838;9.324;2024-03-23T13:01:23;12.20;84.90
17452;DHT22;8843;48.838;9.324;2024-03-23T13:03:50;12.20;85.30
17452;DHT22;8843;48.838;9.324;2024-03-23T13:06:19;12.20;86.30
17452;DHT22;8843;48.838;9.324;2024-03-23T13:08:45;12.20;83.70
17452;DHT22;8843;48.838;9.324;2024-03-23T13:11:12;12.20;85.80
17452;DHT22;8843;48.838;9.324;2024-03-23T13:13:39;12.20;86.10
17452;DHT22;8843;48.838;9.324;2024-03-23T13:16:07;12.20;85.40
17452;DHT22;8843;48.838;9.324;2024-03-23T13:18:34;12.20;85.60
17452;DHT22;8843;48.838;9.324;2024-03-23T13:21:02;12.20;84.20
17452;DHT22;8843;48.838;9.324;2024-03-23T13:23:29;12.30;83.20
17452;DHT22;8843;48.838;9.324;2024-03-23T13:25:58;12.30;80.90
17452;DHT22;8843;48.838;9.324;2024-03-23T13:28:24;12.30;82.30
17452;DHT22;8843;48.838;9.324;2024-03-23T13:30:52;12.30;82.90
17452;DHT22;8843;48.838;9.324;2024-03-23T13:33:18;12.30;73.70
17452;DHT22;8843;48.838;9.324;2024-03-23T13:35:51;13.20;91.50
17452;DHT22;8843;48.838;9.324;2024-03-23T13:38:19;13.50;79.00
17452;DHT22;8843;48.838;9.324;2024-03-23T13:40:51;13.40;80.10
17452;DHT22;8843;48.838;9.324;2024-03-23T13:43:18;13.00;69.90
17452;DHT22;8843;48.838;9.324;2024-03-23T13:45:46;12.70;67.10
17452;DHT22;8843;48.838;9.324;2024-03-23T13:48:12;12.60;70.90
17452;DHT22;8843;48.838;9.324;2024-03-23T13:50:39;12.60;74.10
17452;DHT22;8843;48.838;9.324;2024-03-23T13:53:05;12.50;73.60
17452;DHT22;8843;48.838;9.324;2024-03-23T13:55:35;12.50;74.50
17452;DHT22;8843;48.838;9.324;2024-03-23T13:58:01;12.50;75.00
17452;DHT22;8843;48.838;9.324;2024-03-23T14:00:29;12.60;75.20
17452;DHT22;8843;48.838;9.324;2024-03-23T14:02:58;12.50;66.20
17452;DHT22;8843;48.838;9.324;2024-03-23T14:05:25;12.50;71.60
17452;DHT22;8843;48.838;9.324;2024-03-23T14:07:51;12.50;71.40
17452;DHT22;8843;48.838;9.324;2024-03-23T14:10:19;12.30;72.60
17452;DHT22;8843;48.838;9.324;2024-03-23T14:12:46;12.30;74.00
17452;DHT22;8843;48.838;9.324;2024-03-23T14:15:13;12.20;75.00
17452;DHT22;8843;48.838;9.324;2024-03-23T14:17:39;12.10;76.10
17452;DHT22;8843;48.838;9.324;2024-03-23T14:20:07;11.90;76.30
17452;DHT22;8843;48.838;9.324;2024-03-23T14:22:37;11.20;76.20
17452;DHT22;8843;48.838;9.324;2024-03-23T14:25:07;10.60;81.70
17452;DHT22;8843;48.838;9.324;2024-03-23T14:27:33;11.10;81.50
17452;DHT22;8843;48.838;9.324;2024-03-23T14:30:06;11.30;80.70
17452;DHT22;8843;48.838;9.324;2024-03-23T14:32:34;11.50;81.00
17452;DHT22;8843;48.838;9.324;2024-03-23T14:35:01;11.50;81.50
17452;DHT22;8843;48.838;9.324;2024-03-23T14:37:27;11.60;80.60
17452;DHT22;8843;48.838;9.324;2024-03-23T14:39:55;11.70;80.80
17452;DHT22;8843;48.838;9.324;2024-03-23T14:42:22;11.80;80.90
17452;DHT22;8843;48.838;9.324;2024-03-23T14:44:50;11.80;81.60
17452;DHT22;8843;48.838;9.324;2024-03-23T14:47:18;11.80;81.90
17452;DHT22;8843;48.838;9.324;2024-03-23T14:49:45;11.90;82.40
17452;DHT22;8843;48.838;9.324;2024-03-23T14:52:13;11.90;82.90
17452;DHT22;8843;48.838;9.324;2024-03-23T14:54:40;11.90;83.20
17452;DHT22;8843;48.838;9.324;2024-03-23T14:57:06;11.90;83.50
17452;DHT22;8843;48.838;9.324;2024-03-23T14:59:34;11.90;83.10
17452;DHT22;8843;48.838;9.324;2024-03-23T15:02:01;12.80;89.80
17452;DHT22;8843;48.838;9.324;2024-03-23T15:04:29;12.70;82.60
17452;DHT22;8843;48.838;9.324;2024-03-23T15:06:58;12.40;82.20
17452;DHT22;8843;48.838;9.324;2024-03-23T15:09:25;12.30;82.30
17452;DHT22;8843;48.838;9.324;2024-03-23T15:11:51;12.20;83.00
17452;DHT22;8843;48.838;9.324;2024-03-23T15:14:20;12.10;83.00
17452;DHT22;8843;48.838;9.324;2024-03-23T15:16:46;12.10;83.70
17452;DHT22;8843;48.838;9.324;2024-03-23T15:19:14;12.00;83.70
17452;DHT22;8843;48.838;9.324;2024-03-23T15:21:44;12.00;83.90
17452;DHT22;8843;48.838;9.324;2024-03-23T15:24:11;12.00;83.80
17452;DHT22;8843;48.838;9.324;2024-03-23T15:26:37;12.00;83.90
17452;DHT22;8843;48.838;9.324;2024-03-23T15:29:04;12.00;83.80
17452;DHT22;8843;48.838;9.324;2024-03-23T15:31:37;12.00;83.90
17452;DHT22;8843;48.838;9.324;2024-03-23T15:34:04;12.00;83.60
17452;DHT22;8843;48.838;9.324;2024-03-23T15:36:30;12.00;84.30
17452;DHT22;8843;48.838;9.324;2024-03-23T15:38:59;11.90;83.10
17452;DHT22;8843;48.838;9.324;2024-03-23T15:41:25;12.00;83.90
17452;DHT22;8843;48.838;9.324;2024-03-23T15:43:52;11.90;83.40
17452;DHT22;8843;48.838;9.324;2024-03-23T15:46:19;12.00;84.50
17452;DHT22;8843;48.838;9.324;2024-03-23T15:48:46;12.00;84.10
17452;DHT22;8843;48.838;9.324;2024-03-23T15:51:13;12.00;83.80
17452;DHT22;8843;48.838;9.324;2024-03-23T15:53:40;12.00;84.00
17452;DHT22;8843;48.838;9.324;2024-03-23T15:56:11;12.00;83.60
17452;DHT22;8843;48.838;9.324;2024-03-23T15:58:38;12.00;85.00
17452;DHT22;8843;48.838;9.324;2024-03-23T16:01:07;12.00;83.90
17452;DHT22;8843;48.838;9.324;2024-03-23T16:03:34;11.90;84.20
17452;DHT22;8843;48.838;9.324;2024-03-23T16:06:03;11.90;84.40
17452;DHT22;8843;48.838;9.324;2024-03-23T16:08:31;11.90;84.20
17452;DHT22;8843;48.838;9.324;2024-03-23T16:11:00;11.90;84.40
17452;DHT22;8843;48.838;9.324;2024-03-23T16:13:30;11.90;83.80
17452;DHT22;8843;48.838;9.324;2024-03-23T16:15:57;11.90;84.10
17452;DHT22;8843;48.838;9.324;2024-03-23T16:18:25;11.90;85.70
17452;DHT22;8843;48.838;9.324;2024-03-23T16:20:55;11.90;83.00
17452;DHT22;8843;48.838;9.324;2024-03-23T16:23:22;11.60;81.60
17452;DHT22;8843;48.838;9.324;2024-03-23T16:25:49;11.50;80.30
17452;DHT22;8843;48.838;9.324;2024-03-23T16:28:24;11.80;90.70
17452;DHT22;8843;48.838;9.324;2024-03-23T16:30:58;11.90;80.30
17452;DHT22;8843;48.838;9.324;2024-03-23T16:33:27;11.80;86.90
17452;DHT22;8843;48.838;9.324;2024-03-23T16:36:01;12.70;87.40
17452;DHT22;8843;48.838;9.324;2024-03-23T16:38:31;12.50;85.20
17452;DHT22;8843;48.838;9.324;2024-03-23T16:40:59;12.30;84.50